Time;durP1;ratioP1;P1;durP2;ratioP2;P2;SDS_P1;SDS_P2;PMS_P1;PMS_P2;Temp;Humidity;BMP_temperature;BMP_pressure;BME280_temperature;BME280_humidity;BME280_pressure;Samples;Min_cycle;Max_cycle;Signal;HPM_P1;HPM_P2
2022/05/18 00:01:32;;;;;;;0.70;0.20;;;20.40;1.00;;;;;;5073912;28;20441;-75
2022/05/18 00:04:03;;;;;;;0.70;0.23;;;20.30;1.00;;;;;;5074237;28;20479;-75
2022/05/18 00:06:32;;;;;;;0.70;0.13;;;20.10;1.00;;;;;;5073644;28;20989;-75
2022/05/18 00:09:00;;;;;;;0.70;0.10;;;20.10;1.00;;;;;;5073876;28;20436;-74
2022/05/18 00:11:28;;;;;;;0.70;0.10;;;20.10;1.00;;;;;;5074220;28;20460;-74
2022/05/18 00:13:55;;;;;;;0.70;0.10;;;20.00;1.00;;;;;;5074221;28;20536;-75
2022/05/18 00:16:25;;;;;;;0.90;0.60;;;20.00;1.00;;;;;;5073009;28;20496;-75
2022/05/18 00:18:54;;;;;;;0.70;0.10;;;20.00;1.00;;;;;;5073916;28;20779;-75
2022/05/18 00:21:24;;;;;;;2.10;2.00;;;20.00;1.00;;;;;;5073688;28;20542;-77
2022/05/18 00:23:52;;;;;;;0.70;0.10;;;20.00;1.00;;;;;;5073676;28;21044;-75
2022/05/18 00:26:20;;;;;;;0.70;0.10;;;20.10;1.00;;;;;;5068703;28;20974;-74
2022/05/18 00:28:48;;;;;;;0.70;0.10;;;20.00;1.00;;;;;;5053890;28;20943;-75
2022/05/18 00:31:18;;;;;;;0.70;0.10;;;20.10;1.00;;;;;;5054000;28;20637;-75
2022/05/18 00:33:50;;;;;;;0.70;0.10;;;20.10;1.00;;;;;;5053954;28;20450;-74
2022/05/18 00:36:18;;;;;;;0.70;0.10;;;20.00;1.00;;;;;;5053045;28;20464;-77
2022/05/18 00:38:47;;;;;;;0.70;0.20;;;20.00;1.00;;;;;;5053726;28;20643;-74
2022/05/18 00:41:19;;;;;;;0.70;0.20;;;20.00;1.00;;;;;;5053842;28;20459;-74
2022/05/18 00:43:51;;;;;;;0.70;0.30;;;20.00;1.00;;;;;;5054010;28;20582;-75
2022/05/18 00:46:19;;;;;;;0.70;0.10;;;20.00;1.00;;;;;;5053070;28;20509;-74
2022/05/18 00:48:52;;;;;;;0.70;0.10;;;20.00;1.00;;;;;;5053686;28;20449;-75
2022/05/18 00:51:25;;;;;;;0.70;0.20;;;20.00;1.00;;;;;;5053660;28;20437;-76
2022/05/18 00:53:59;;;;;;;0.70;0.10;;;20.00;1.00;;;;;;5054405;28;20449;-75
2022/05/18 00:56:33;;;;;;;0.60;0.10;;;20.00;1.00;;;;;;5053919;28;20464;-76
2022/05/18 00:59:05;;;;;;;0.70;0.10;;;20.00;1.00;;;;;;5052209;28;20446;-75
2022/05/18 01:01:33;;;;;;;0.68;0.10;;;19.90;1.00;;;;;;5051748;28;20469;-75
2022/05/18 01:04:03;;;;;;;0.60;0.10;;;20.00;1.00;;;;;;5050642;28;20330;-74
2022/05/18 01:06:40;;;;;;;0.70;0.10;;;19.90;1.00;;;;;;5050435;28;20491;-75
2022/05/18 01:09:16;;;;;;;0.70;0.10;;;19.90;1.00;;;;;;5052074;28;20683;-75
2022/05/18 01:11:44;;;;;;;0.70;0.20;;;19.90;1.00;;;;;;5051818;28;20551;-74
2022/05/18 01:14:16;;;;;;;0.70;0.10;;;19.70;1.00;;;;;;5052873;28;20468;-75
2022/05/18 01:16:44;;;;;;;0.70;0.10;;;19.60;1.00;;;;;;5051868;28;21031;-75
2022/05/18 01:19:20;;;;;;;1.00;0.30;;;19.60;1.00;;;;;;5052233;28;20810;-75
2022/05/18 01:21:54;;;;;;;0.67;0.10;;;19.40;1.00;;;;;;5052283;28;20977;-75
2022/05/18 01:24:32;;;;;;;0.70;0.20;;;19.40;1.00;;;;;;5052460;28;20484;-75
2022/05/18 01:27:02;;;;;;;0.60;0.20;;;19.30;1.00;;;;;;5051892;28;20471;-75
2022/05/18 01:29:31;;;;;;;0.63;0.20;;;19.40;1.00;;;;;;5055808;28;20456;-74
2022/05/18 01:32:01;;;;;;;0.60;0.10;;;19.40;1.00;;;;;;5053254;28;20461;-74
2022/05/18 01:34:34;;;;;;;0.70;0.20;;;19.40;1.00;;;;;;5053000;28;20449;-74
2022/05/18 01:37:02;;;;;;;0.60;0.10;;;19.50;1.00;;;;;;5052999;28;20485;-74
2022/05/18 01:39:33;;;;;;;0.70;0.20;;;19.50;1.00;;;;;;5051832;28;20543;-74
2022/05/18 01:42:15;;;;;;;0.70;0.20;;;19.50;1.00;;;;;;5051782;28;20437;-75
2022/05/18 01:44:43;;;;;;;23.50;22.20;;;19.60;1.00;;;;;;5051445;28;20485;-75
2022/05/18 01:47:11;;;;;;;15.60;14.87;;;19.60;1.00;;;;;;5050418;28;20487;-75
2022/05/18 01:49:41;;;;;;;0.60;0.10;;;19.60;1.00;;;;;;5051866;28;20446;-75
2022/05/18 01:52:10;;;;;;;0.60;0.10;;;19.70;1.00;;;;;;5051707;28;20441;-75
2022/05/18 01:54:39;;;;;;;0.67;0.17;;;19.80;1.00;;;;;;5051398;28;20485;-76
2022/05/18 01:57:09;;;;;;;0.60;0.10;;;19.80;1.00;;;;;;5050767;28;20460;-75
2022/05/18 01:59:37;;;;;;;0.60;0.10;;;19.80;1.00;;;;;;5058417;28;20449;-75
2022/05/18 02:02:06;;;;;;;0.70;0.20;;;19.80;1.00;;;;;;5071084;28;20213;-74
2022/05/18 02:04:35;;;;;;;0.70;0.20;;;19.80;1.00;;;;;;5070886;28;20448;-75
2022/05/18 02:07:04;;;;;;;0.60;0.10;;;19.80;1.00;;;;;;5070893;28;20472;-74
2022/05/18 02:09:32;;;;;;;0.70;0.20;;;19.70;1.00;;;;;;5071272;28;20209;-74
2022/05/18 02:12:00;;;;;;;0.70;0.20;;;19.70;1.00;;;;;;5071002;28;20448;-74
2022/05/18 02:14:30;;;;;;;0.63;0.20;;;19.60;1.00;;;;;;5070788;28;20451;-76
2022/05/18 02:16:57;;;;;;;0.60;0.10;;;19.50;1.00;;;;;;5070150;28;20809;-75
2022/05/18 02:19:26;;;;;;;0.60;0.10;;;19.50;1.00;;;;;;5071342;28;20853;-75
2022/05/18 02:21:53;;;;;;;0.70;0.20;;;19.40;1.00;;;;;;5071464;28;20466;-75
2022/05/18 02:24:21;;;;;;;1.33;0.83;;;19.30;1.00;;;;;;5070962;28;20828;-74
2022/05/18 02:26:50;;;;;;;2.17;1.23;;;;;;;;;;5061616;28;20488;-75
2022/05/18 02:29:20;;;;;;;0.60;0.20;;;19.10;1.00;;;;;;5051227;28;20909;-75
2022/05/18 02:31:49;;;;;;;0.60;0.10;;;19.10;1.00;;;;;;5050966;28;20482;-74
2022/05/18 02:34:17;;;;;;;0.60;0.10;;;19.00;1.00;;;;;;5050733;28;20492;-75
2022/05/18 02:36:45;;;;;;;0.60;0.20;;;19.00;1.00;;;;;;5050942;28;20465;-75
2022/05/18 02:39:13;;;;;;;0.60;0.10;;;19.00;1.00;;;;;;5051002;28;20452;-75
2022/05/18 02:41:41;;;;;;;0.60;0.17;;;19.00;1.00;;;;;;5051167;28;20795;-75
2022/05/18 02:44:09;;;;;;;0.60;0.10;;;19.00;1.00;;;;;;5050709;28;20544;-74
2022/05/18 02:46:36;;;;;;;0.60;0.20;;;19.10;1.00;;;;;;5058160;23;20820;-78
2022/05/18 02:49:06;;;;;;;0.60;0.20;;;19.10;1.00;;;;;;5016489;28;20921;-78
2022/05/18 02:51:34;;;;;;;0.60;0.10;;;19.20;1.00;;;;;;5017575;28;20508;-78
2022/05/18 02:56:05;;;;;;;0.60;0.13;;;19.20;1.00;;;;;;5017607;28;20214;-78
2022/05/18 02:56:49;;;;;;;0.60;0.10;;;19.30;1.00;;;;;;5017789;28;20468;-78
2022/05/18 02:59:17;;;;;;;0.70;0.30;;;19.30;1.00;;;;;;5022540;28;20207;-78
2022/05/18 03:01:45;;;;;;;0.60;0.10;;;19.30;1.00;;;;;;5018884;28;20458;-78
2022/05/18 03:04:15;;;;;;;0.60;0.10;;;19.30;1.00;;;;;;5018375;28;20447;-78
2022/05/18 03:06:43;;;;;;;0.60;0.10;;;19.20;1.00;;;;;;5017632;28;20489;-78
2022/05/18 03:09:11;;;;;;;0.60;0.10;;;19.20;1.00;;;;;;5015813;28;20953;-77
2022/05/18 03:11:39;;;;;;;0.60;0.10;;;19.10;1.00;;;;;;5015226;28;20446;-78
2022/05/18 03:14:07;;;;;;;0.60;0.10;;;19.10;1.00;;;;;;5017279;28;20457;-78
2022/05/18 03:16:35;;;;;;;0.60;0.13;;;19.00;1.00;;;;;;5019105;28;20547;-79
2022/05/18 03:19:03;;;;;;;0.60;0.10;;;19.00;1.00;;;;;;5020643;28;20445;-78
2022/05/18 03:24:18;;;;;;;0.60;0.10;;;;;;;;;;5024625;28;20493;-79
2022/05/18 03:26:46;;;;;;;0.60;0.10;;;18.90;1.00;;;;;;5026958;28;20485;-78
2022/05/18 03:29:14;;;;;;;0.60;0.10;;;19.00;1.00;;;;;;5031064;28;20566;-79
2022/05/18 03:31:42;;;;;;;0.60;0.20;;;19.00;1.00;;;;;;5028639;28;20545;-79
2022/05/18 03:34:09;;;;;;;0.60;0.10;;;19.10;1.00;;;;;;5027525;28;20442;-78
2022/05/18 03:36:39;;;;;;;0.60;0.10;;;19.10;1.00;;;;;;5027260;28;20518;-79
2022/05/18 03:39:07;;;;;;;0.60;0.10;;;19.00;1.00;;;;;;5024390;28;20458;-78
2022/05/18 03:41:35;;;;;;;0.60;0.10;;;19.00;1.00;;;;;;5024389;28;20439;-78
2022/05/18 03:44:03;;;;;;;0.60;0.10;;;19.00;1.00;;;;;;5019284;28;21012;-78
2022/05/18 03:46:32;;;;;;;0.60;0.10;;;18.90;1.00;;;;;;5020054;28;20496;-79
2022/05/18 03:49:00;;;;;;;0.60;0.10;;;18.90;1.00;;;;;;5023573;28;20504;-78
2022/05/18 03:51:28;;;;;;;0.60;0.20;;;18.90;1.00;;;;;;5022106;28;20522;-78
2022/05/18 03:53:57;;;;;;;0.60;0.10;;;18.90;1.00;;;;;;5023062;28;20826;-78
2022/05/18 03:56:26;;;;;;;0.60;0.10;;;18.80;1.00;;;;;;5023110;28;20460;-79
2022/05/18 03:58:54;;;;;;;0.60;0.20;;;18.90;1.00;;;;;;5026314;28;20485;-79
2022/05/18 04:01:21;;;;;;;0.60;0.10;;;18.90;1.00;;;;;;5024732;28;20470;-79
2022/05/18 04:03:49;;;;;;;0.60;0.10;;;18.90;1.00;;;;;;5023505;28;20447;-78
2022/05/18 04:06:17;;;;;;;0.60;0.10;;;18.90;1.00;;;;;;5019846;28;20487;-79
2022/05/18 04:08:46;;;;;;;0.60;0.20;;;18.80;1.00;;;;;;5025898;28;20452;-79
2022/05/18 04:11:15;;;;;;;0.60;0.10;;;18.80;1.00;;;;;;5031024;28;20460;-79
2022/05/18 04:13:43;;;;;;;0.60;0.20;;;18.80;1.00;;;;;;5030603;28;20449;-78
2022/05/18 04:16:11;;;;;;;0.60;0.20;;;18.80;1.00;;;;;;5017987;28;20467;-77
2022/05/18 04:18:39;;;;;;;0.60;0.10;;;18.80;1.00;;;;;;5015627;28;20467;-78
2022/05/18 04:21:07;;;;;;;0.60;0.10;;;18.90;1.00;;;;;;5018826;28;20230;-78
2022/05/18 04:23:38;;;;;;;0.70;0.30;;;19.00;1.00;;;;;;5018216;28;20546;-78
2022/05/18 04:26:05;;;;;;;0.60;0.10;;;19.00;1.00;;;;;;5015146;28;20501;-79
2022/05/18 04:28:35;;;;;;;0.60;0.20;;;19.10;1.00;;;;;;4999961;28;20455;-78
2022/05/18 04:31:04;;;;;;;3.00;2.87;;;19.10;1.00;;;;;;5002689;28;20577;-78
2022/05/18 04:33:32;;;;;;;0.60;0.10;;;19.10;1.00;;;;;;5023478;28;20456;-79
2022/05/18 04:36:02;;;;;;;0.60;0.10;;;19.10;1.00;;;;;;5026900;28;20536;-79
2022/05/18 04:38:32;;;;;;;0.60;0.10;;;19.10;1.00;;;;;;5023877;28;20446;-79
2022/05/18 04:41:00;;;;;;;0.60;0.20;;;19.10;1.00;;;;;;5024542;28;20472;-78
2022/05/18 04:43:32;;;;;;;0.60;0.10;;;19.10;1.00;;;;;;5013800;28;20545;-78
2022/05/18 04:46:01;;;;;;;0.60;0.20;;;19.10;1.00;;;;;;5022154;28;20464;-79
2022/05/18 04:48:31;;;;;;;0.60;0.20;;;19.10;1.00;;;;;;5004030;28;20501;-80
2022/05/18 04:51:00;;;;;;;0.60;0.13;;;19.10;1.00;;;;;;5010905;28;20447;-76
2022/05/18 04:53:28;;;;;;;0.60;0.10;;;19.20;1.00;;;;;;5006069;28;20458;-78
2022/05/18 04:55:55;;;;;;;0.60;0.10;;;19.40;1.00;;;;;;5018617;28;20488;-78
2022/05/18 04:58:23;;;;;;;0.60;0.10;;;19.40;1.00;;;;;;5013836;28;20448;-78
2022/05/18 05:00:57;;;;;;;0.60;0.10;;;19.40;1.00;;;;;;5018032;28;20999;-78
2022/05/18 05:03:26;;;;;;;0.60;0.20;;;19.30;1.00;;;;;;5020769;28;20473;-78
2022/05/18 05:06:00;;;;;;;0.60;0.20;;;19.30;1.00;;;;;;5020758;28;20484;-78
2022/05/18 05:08:28;;;;;;;0.70;0.23;;;19.30;1.00;;;;;;5018213;28;20452;-77
2022/05/18 05:10:57;;;;;;;0.60;0.10;;;19.30;1.00;;;;;;5016904;28;20505;-78
2022/05/18 05:13:25;;;;;;;0.60;0.10;;;19.30;1.00;;;;;;5016793;28;20460;-78
2022/05/18 05:16:00;;;;;;;0.60;0.20;;;19.40;1.00;;;;;;5017414;28;20204;-78
2022/05/18 05:18:29;;;;;;;0.60;0.20;;;19.50;1.00;;;;;;5018115;28;20539;-77
2022/05/18 05:20:57;;;;;;;0.60;0.20;;;19.50;1.00;;;;;;5016991;28;20205;-78
2022/05/18 05:23:26;;;;;;;0.70;0.37;;;19.50;1.00;;;;;;5011199;28;20541;-78
2022/05/18 05:25:55;;;;;;;0.70;0.20;;;19.50;1.00;;;;;;5009795;28;20463;-79
2022/05/18 05:28:23;;;;;;;0.60;0.10;;;19.50;1.00;;;;;;5014050;28;20476;-77
2022/05/18 05:30:51;;;;;;;0.60;0.20;;;19.50;1.00;;;;;;5019889;28;20226;-79
2022/05/18 05:33:19;;;;;;;0.60;0.20;;;19.60;1.00;;;;;;5021116;28;20474;-77
2022/05/18 05:35:49;;;;;;;0.60;0.20;;;19.70;1.00;;;;;;5011117;28;20455;-80
2022/05/18 05:38:17;;;;;;;0.60;0.10;;;19.70;1.00;;;;;;5026233;28;20527;-79
2022/05/18 05:40:47;;;;;;;0.70;0.13;;;19.70;1.00;;;;;;5019180;28;20261;-79
2022/05/18 05:43:15;;;;;;;0.70;0.20;;;19.90;1.00;;;;;;5025991;28;20502;-80
2022/05/18 05:45:43;;;;;;;0.60;0.10;;;19.90;1.00;;;;;;5023174;28;20506;-79
2022/05/18 05:48:11;;;;;;;0.60;0.10;;;19.90;1.00;;;;;;5011427;28;20864;-81
2022/05/18 05:50:39;;;;;;;0.70;0.20;;;20.00;1.00;;;;;;5024975;28;20444;-79
2022/05/18 05:53:08;;;;;;;0.70;0.20;;;20.10;1.00;;;;;;5023239;28;20440;-79
2022/05/18 05:55:35;;;;;;;0.70;0.20;;;20.10;1.00;;;;;;5023568;28;20457;-78
2022/05/18 05:58:03;;;;;;;0.70;0.10;;;20.20;1.00;;;;;;5019995;28;20493;-79
2022/05/18 06:00:31;;;;;;;0.60;0.10;;;20.30;1.00;;;;;;5022137;28;20465;-78
2022/05/18 06:02:59;;;;;;;0.70;0.20;;;20.30;1.00;;;;;;5021219;28;20539;-79
2022/05/18 06:05:28;;;;;;;0.70;0.30;;;20.30;1.00;;;;;;5021018;28;20798;-79
2022/05/18 06:07:57;;;;;;;0.60;0.20;;;20.40;1.00;;;;;;5021624;28;20515;-80
2022/05/18 06:10:27;;;;;;;0.70;0.10;;;20.40;1.00;;;;;;5011817;28;20449;-78
2022/05/18 06:12:54;;;;;;;1.97;1.70;;;20.40;1.00;;;;;;5018483;28;20475;-79
2022/05/18 06:15:22;;;;;;;0.70;0.10;;;20.50;1.00;;;;;;5021148;28;20446;-80
2022/05/18 06:17:51;;;;;;;0.70;0.20;;;20.60;1.00;;;;;;5019906;28;20519;-80
2022/05/18 06:20:19;;;;;;;0.60;0.10;;;20.60;1.00;;;;;;5019450;28;20451;-79
2022/05/18 06:22:49;;;;;;;0.60;0.20;;;20.60;1.00;;;;;;5019415;28;20456;-79
2022/05/18 06:25:18;;;;;;;0.70;0.30;;;20.70;1.00;;;;;;5019804;28;20808;-80
2022/05/18 06:27:48;;;;;;;0.70;0.13;;;20.80;1.00;;;;;;5020191;28;20489;-80
2022/05/18 06:30:16;;;;;;;0.70;0.20;;;20.80;1.00;;;;;;5018645;28;20458;-80
2022/05/18 06:32:44;;;;;;;0.70;0.10;;;20.80;1.00;;;;;;5024241;28;20487;-80
2022/05/18 06:35:12;;;;;;;0.77;0.40;;;20.90;1.00;;;;;;5013199;28;20467;-79
2022/05/18 06:37:40;;;;;;;0.70;0.20;;;21.00;1.00;;;;;;5002391;28;20503;-78
2022/05/18 06:40:09;;;;;;;0.70;0.20;;;21.00;1.00;;;;;;5004913;28;20518;-78
2022/05/18 06:42:38;;;;;;;1.33;0.50;;;21.10;1.00;;;;;;5020912;28;20530;-80
2022/05/18 06:45:10;;;;;;;0.70;0.10;;;21.10;1.00;;;;;;5021258;28;20795;-78
2022/05/18 06:47:38;;;;;;;0.70;0.20;;;21.20;1.00;;;;;;5023789;28;20486;-78
2022/05/18 06:50:09;;;;;;;0.70;0.10;;;21.20;1.00;;;;;;5023001;28;20462;-78
2022/05/18 06:52:37;;;;;;;0.70;0.10;;;21.20;1.00;;;;;;5027923;28;20454;-79
2022/05/18 06:55:05;;;;;;;0.70;0.10;;;21.20;1.00;;;;;;5018791;28;20433;-77
2022/05/18 06:57:33;;;;;;;1.10;0.60;;;21.30;1.00;;;;;;5026840;28;20481;-79
2022/05/18 07:00:04;;;;;;;0.70;0.10;;;21.30;1.00;;;;;;5022811;28;20462;-79
2022/05/18 07:02:33;;;;;;;0.70;0.10;;;21.40;1.00;;;;;;5018793;28;20439;-79
2022/05/18 07:05:02;;;;;;;0.70;0.10;;;21.40;1.00;;;;;;5026498;28;20443;-79
2022/05/18 07:07:29;;;;;;;0.70;0.20;;;21.60;99.90;;;;;;5025158;28;20482;-78
2022/05/18 07:09:57;;;;;;;0.70;0.10;;;21.60;99.90;;;;;;5017031;28;20521;-78
2022/05/18 07:12:25;;;;;;;0.70;0.20;;;21.60;99.90;;;;;;5016326;28;20493;-78
2022/05/18 07:14:53;;;;;;;0.70;0.10;;;21.70;99.90;;;;;;5013959;28;20468;-79
2022/05/18 07:17:21;;;;;;;0.70;0.10;;;21.80;99.90;;;;;;5015066;28;20492;-78
2022/05/18 07:19:50;;;;;;;0.80;0.30;;;21.90;99.90;;;;;;5021062;28;20477;-78
2022/05/18 07:22:18;;;;;;;0.70;0.20;;;21.90;99.90;;;;;;5022403;28;20510;-79
2022/05/18 07:24:46;;;;;;;0.70;0.10;;;21.90;99.90;;;;;;5026889;28;20463;-80
2022/05/18 07:27:14;;;;;;;0.70;0.20;;;22.00;99.90;;;;;;5013813;28;20470;-79
2022/05/18 07:29:42;;;;;;;0.70;0.10;;;22.00;99.90;;;;;;5001132;28;20454;-79
2022/05/18 07:32:12;;;;;;;0.70;0.20;;;22.10;99.90;;;;;;5001559;28;20212;-79
2022/05/18 07:34:41;;;;;;;0.70;0.10;;;22.20;99.90;;;;;;5018339;28;20466;-78
2022/05/18 07:37:11;;;;;;;0.70;0.20;;;22.30;99.90;;;;;;5016185;28;20571;-79
2022/05/18 07:39:39;;;;;;;0.70;0.10;;;22.40;99.90;;;;;;5013891;28;20198;-77
2022/05/18 07:42:10;;;;;;;0.70;0.20;;;22.40;99.90;;;;;;5032065;28;20451;-79
2022/05/18 07:44:40;;;;;;;0.70;0.10;;;22.50;99.90;;;;;;5027008;28;20452;-78
2022/05/18 07:47:10;;;;;;;0.70;0.10;;;22.60;99.90;;;;;;5026409;28;20273;-78
2022/05/18 07:49:42;;;;;;;0.70;0.10;;;22.60;99.90;;;;;;5018449;28;20551;-78
2022/05/18 07:52:12;;;;;;;1.53;0.30;;;22.70;99.90;;;;;;5020177;28;20513;-78
2022/05/18 07:54:44;;;;;;;0.70;0.20;;;22.80;99.90;;;;;;5020136;28;20959;-79
2022/05/18 07:57:15;;;;;;;0.70;0.10;;;22.80;99.90;;;;;;5019653;28;20880;-79
2022/05/18 07:59:44;;;;;;;0.70;0.10;;;22.80;99.90;;;;;;5019266;28;20445;-79
2022/05/18 08:02:15;;;;;;;0.70;0.20;;;22.90;99.90;;;;;;5016793;28;20251;-78
2022/05/18 08:04:45;;;;;;;0.70;0.10;;;23.00;99.90;;;;;;5015158;28;20543;-78
2022/05/18 08:07:15;;;;;;;0.70;0.10;;;23.10;99.90;;;;;;5014038;28;20909;-77
2022/05/18 08:15:23;;;;;;;0.70;0.20;;;23.30;99.90;;;;;;5014877;28;20459;-74
2022/05/18 08:17:53;;;;;;;0.70;0.10;;;23.30;99.90;;;;;;5019587;28;20494;-78
2022/05/18 08:20:24;;;;;;;0.70;0.20;;;23.40;99.90;;;;;;5016465;28;20586;-76
2022/05/18 08:22:56;;;;;;;0.70;0.33;;;23.40;99.90;;;;;;5015577;28;20444;-75
2022/05/18 08:25:26;;;;;;;0.70;0.17;;;23.40;99.90;;;;;;5017410;28;20443;-78
2022/05/18 08:27:56;;;;;;;0.70;0.20;;;23.50;99.90;;;;;;5014953;28;20452;-77
2022/05/18 08:30:30;;;;;;;0.70;0.20;;;23.50;99.90;;;;;;5013461;28;20450;-76
2022/05/18 08:33:00;;;;;;;0.70;0.20;;;23.50;99.90;;;;;;5017350;28;20449;-75
2022/05/18 08:35:31;;;;;;;0.70;0.10;;;23.60;99.90;;;;;;5013659;28;20472;-76
2022/05/18 08:38:03;;;;;;;0.70;0.10;;;23.80;99.90;;;;;;5013189;28;20847;-77
2022/05/18 08:40:40;;;;;;;0.70;0.10;;;23.80;99.90;;;;;;5019130;28;20432;-76
2022/05/18 08:43:10;;;;;;;0.70;0.13;;;23.90;99.90;;;;;;5020567;28;20217;-77
2022/05/18 08:45:46;;;;;;;0.70;0.10;;;24.00;99.90;;;;;;5015760;28;20540;-76
2022/05/18 08:48:24;;;;;;;0.70;0.23;;;24.00;99.90;;;;;;5012362;28;20528;-77
2022/05/18 08:50:56;;;;;;;1.00;0.73;;;24.00;99.90;;;;;;5013094;28;20444;-77
2022/05/18 08:53:57;;;;;;;0.70;0.20;;;24.10;99.90;;;;;;5013081;28;20450;-77
2022/05/18 08:56:33;;;;;;;0.70;0.20;;;24.00;99.90;;;;;;5012522;28;20477;-76
2022/05/18 08:59:10;;;;;;;0.70;0.13;;;24.10;99.90;;;;;;5012263;28;20452;-77
2022/05/18 09:01:42;;;;;;;0.70;0.10;;;24.10;99.90;;;;;;5012498;28;20440;-76
2022/05/18 09:04:16;;;;;;;0.70;0.10;;;24.20;99.90;;;;;;5012602;28;20508;-76
2022/05/18 09:06:52;;;;;;;0.70;0.10;;;24.30;99.90;;;;;;5013060;28;20468;-74
2022/05/18 09:12:17;;;;;;;0.70;0.20;;;24.40;99.90;;;;;;5013606;28;20441;-77
2022/05/18 09:14:47;;;;;;;0.70;0.20;;;24.50;99.90;;;;;;5022303;28;20441;-78
2022/05/18 09:17:25;;;;;;;0.70;0.20;;;24.60;99.90;;;;;;5025516;28;20484;-78
2022/05/18 09:20:04;;;;;;;0.70;0.20;;;24.60;99.90;;;;;;5018385;28;20456;-79
2022/05/18 09:22:51;;;;;;;0.70;0.10;;;24.70;99.90;;;;;;5017211;28;20232;-79
2022/05/18 09:25:36;;;;;;;0.70;0.10;;;24.90;99.90;;;;;;5015147;28;20453;-79
2022/05/18 09:28:19;;;;;;;0.70;0.10;;;24.90;99.90;;;;;;5013255;28;20464;-77
2022/05/18 09:30:58;;;;;;;0.70;0.10;;;25.00;99.90;;;;;;5018646;28;20526;-78
2022/05/18 09:33:45;;;;;;;0.70;0.27;;;25.10;99.90;;;;;;5018623;28;20460;-78
2022/05/18 09:36:41;;;;;;;0.70;0.10;;;25.10;99.90;;;;;;5016048;28;20469;-78
2022/05/18 09:39:15;;;;;;;0.70;0.20;;;25.20;99.90;;;;;;5008073;28;20495;-78
2022/05/18 09:41:51;;;;;;;0.70;0.10;;;25.20;99.90;;;;;;5011790;28;20540;-78
2022/05/18 09:44:24;;;;;;;0.70;0.20;;;25.40;99.90;;;;;;5011411;28;20684;-78
2022/05/18 09:46:56;;;;;;;0.80;0.30;;;25.60;99.90;;;;;;5010691;28;20273;-77
2022/05/18 09:49:34;;;;;;;0.70;0.10;;;25.60;99.90;;;;;;5010204;28;20486;-77
2022/05/18 09:52:06;;;;;;;0.70;0.10;;;25.60;99.90;;;;;;5010072;28;20485;-77
2022/05/18 09:54:38;;;;;;;0.70;0.20;;;25.70;99.90;;;;;;5003396;28;20448;-78
2022/05/18 09:57:13;;;;;;;1.53;0.57;;;25.80;99.90;;;;;;5010510;28;20844;-77
2022/05/18 09:59:49;;;;;;;0.70;0.10;;;25.80;99.90;;;;;;5014947;28;20438;-78
2022/05/18 10:08:12;;;;;;;0.70;0.10;;;26.00;99.90;;;;;;5017466;28;20570;-79
2022/05/18 10:10:44;;;;;;;0.70;0.10;;;26.20;99.90;;;;;;5019580;28;20540;-79
2022/05/18 10:13:18;;;;;;;0.70;0.20;;;26.20;99.90;;;;;;5019075;28;20456;-78
2022/05/18 10:16:17;;;;;;;0.70;0.20;;;26.50;99.90;;;;;;5021207;28;20480;-78
2022/05/18 10:18:52;;;;;;;0.70;0.20;;;26.50;99.90;;;;;;5015657;28;20475;-79
2022/05/18 10:21:33;;;;;;;0.70;0.20;;;26.50;99.90;;;;;;5023460;28;20452;-77
2022/05/18 10:24:05;;;;;;;0.70;0.10;;;26.50;99.90;;;;;;5003809;28;20930;-75
2022/05/18 10:26:38;;;;;;;0.70;0.20;;;26.20;99.90;;;;;;5003041;28;20462;-77
2022/05/18 10:29:23;;;;;;;0.70;0.10;;;26.60;99.90;;;;;;5011031;28;20976;-77
2022/05/18 10:32:04;;;;;;;0.70;0.17;;;26.70;99.90;;;;;;5011349;28;20446;-76
2022/05/18 10:34:42;;;;;;;0.70;0.10;;;26.80;99.90;;;;;;5011034;28;20455;-78
2022/05/18 10:37:15;;;;;;;0.70;0.20;;;26.90;99.90;;;;;;5009503;28;20474;-78
2022/05/18 10:39:48;;;;;;;0.70;0.10;;;26.90;99.90;;;;;;5010767;28;20448;-77
2022/05/18 10:42:24;;;;;;;0.70;0.20;;;26.90;99.90;;;;;;5012925;28;20841;-77
2022/05/18 10:44:58;;;;;;;0.70;0.20;;;26.90;99.90;;;;;;5014691;28;20459;-76
2022/05/18 10:47:32;;;;;;;0.70;0.10;;;27.00;99.90;;;;;;5011047;28;20244;-77
2022/05/18 10:50:32;;;;;;;0.70;0.20;;;27.00;99.90;;;;;;5013844;28;20484;-76
2022/05/18 10:53:17;;;;;;;0.70;0.20;;;27.10;99.90;;;;;;4999966;28;20459;-77
2022/05/18 10:55:56;;;;;;;0.70;0.20;;;27.20;99.90;;;;;;5015191;28;20443;-78
2022/05/18 10:58:32;;;;;;;0.70;0.10;;;27.20;99.90;;;;;;5010267;28;20513;-77
2022/05/18 11:01:05;;;;;;;0.70;0.10;;;27.20;99.90;;;;;;5014817;28;20907;-78
2022/05/18 11:03:40;;;;;;;0.70;0.10;;;27.30;99.90;;;;;;5010939;28;20966;-76
2022/05/18 11:06:12;;;;;;;0.70;0.20;;;27.40;99.90;;;;;;5001641;28;20482;-80
2022/05/18 11:08:40;;;;;;;0.70;0.10;;;27.40;99.90;;;;;;4990341;28;20455;-77
2022/05/18 11:11:23;;;;;;;0.70;0.20;;;27.50;99.90;;;;;;5010603;28;20483;-78
2022/05/18 11:13:56;;;;;;;0.70;0.20;;;27.60;99.90;;;;;;5010813;28;20473;-77
2022/05/18 11:16:41;;;;;;;0.70;0.20;;;27.60;99.90;;;;;;5012184;28;20506;-77
2022/05/18 11:19:23;;;;;;;0.90;0.30;;;27.70;99.90;;;;;;5010333;28;20487;-77
2022/05/18 11:22:05;;;;;;;0.70;0.10;;;27.70;99.90;;;;;;5011182;28;20807;-76
2022/05/18 11:24:42;;;;;;;0.70;0.20;;;27.70;99.90;;;;;;5013110;28;20621;-79
2022/05/18 11:27:40;;;;;;;0.70;0.20;;;27.90;99.90;;;;;;5010838;28;20582;-77
2022/05/18 11:30:12;;;;;;;0.70;0.10;;;27.90;99.90;;;;;;5012847;28;20542;-77
2022/05/18 11:32:53;;;;;;;0.70;0.20;;;28.00;99.90;;;;;;5011724;28;20220;-79
2022/05/18 11:35:42;;;;;;;0.70;0.10;;;28.00;99.90;;;;;;5010108;28;20452;-78
2022/05/18 11:38:27;;;;;;;0.70;0.20;;;28.00;99.90;;;;;;5009340;28;20499;-76
2022/05/18 11:41:04;;;;;;;1.40;1.00;;;28.10;99.90;;;;;;5007392;28;20460;-77
2022/05/18 11:43:42;;;;;;;0.70;0.20;;;28.10;99.90;;;;;;5009884;28;20530;-78
2022/05/18 11:46:27;;;;;;;0.70;0.10;;;28.10;99.90;;;;;;5009843;28;20834;-77
2022/05/18 11:49:09;;;;;;;0.70;0.17;;;28.10;99.90;;;;;;5011161;28;20976;-78
2022/05/18 11:51:45;;;;;;;0.70;0.13;;;28.20;99.90;;;;;;5013852;28;20891;-78
2022/05/18 11:54:22;;;;;;;0.70;0.20;;;28.20;99.90;;;;;;5014104;28;20450;-76
2022/05/18 11:56:57;;;;;;;0.70;0.10;;;28.30;99.90;;;;;;5013422;28;20468;-77
2022/05/18 11:59:51;;;;;;;0.83;0.47;;;28.30;99.90;;;;;;5014054;28;20439;-77
2022/05/18 12:03:03;;;;;;;11.00;0.50;;;28.30;99.90;;;;;;5014296;28;20946;-79
2022/05/18 12:05:54;;;;;;;0.70;0.20;;;28.40;99.90;;;;;;5013598;28;20535;-78
2022/05/18 12:08:48;;;;;;;0.70;0.20;;;28.40;99.90;;;;;;5013421;28;20456;-78
2022/05/18 12:11:26;;;;;;;0.70;0.20;;;28.60;99.90;;;;;;5013829;28;20838;-76
2022/05/18 12:14:04;;;;;;;0.70;0.10;;;28.60;99.90;;;;;;5013895;28;20458;-77
2022/05/18 12:16:44;;;;;;;0.70;0.20;;;28.80;99.90;;;;;;5012090;28;20475;-76
2022/05/18 12:19:21;;;;;;;0.70;0.20;;;28.80;99.90;;;;;;5013467;28;20451;-80
2022/05/18 12:21:54;;;;;;;0.70;0.10;;;28.90;99.90;;;;;;5013470;28;20489;-76
2022/05/18 12:24:24;;;;;;;1.60;0.70;;;28.90;99.90;;;;;;5012788;28;20469;-77
2022/05/18 12:26:53;;;;;;;0.70;0.17;;;28.60;99.90;;;;;;5012503;28;20546;-78
2022/05/18 12:29:24;;;;;;;0.70;0.20;;;28.60;99.90;;;;;;5013346;28;20547;-76
2022/05/18 12:31:55;;;;;;;0.70;0.20;;;28.60;99.90;;;;;;5014777;28;20548;-75
2022/05/18 12:34:27;;;;;;;0.70;0.10;;;28.80;99.90;;;;;;5013729;28;20205;-77
2022/05/18 12:37:02;;;;;;;0.70;0.10;;;29.10;99.90;;;;;;5013221;28;20490;-76
2022/05/18 12:39:42;;;;;;;0.73;0.40;;;29.10;99.90;;;;;;5012856;28;20558;-76
2022/05/18 12:42:14;;;;;;;0.70;0.20;;;29.20;99.90;;;;;;5014106;28;20443;-77
2022/05/18 12:44:45;;;;;;;0.70;0.10;;;29.30;99.90;;;;;;5015207;28;20947;-76
2022/05/18 12:47:24;;;;;;;0.70;0.20;;;29.30;99.90;;;;;;5014759;28;20555;-76
2022/05/18 12:49:58;;;;;;;0.70;0.20;;;29.40;99.90;;;;;;5013034;28;20444;-77
2022/05/18 12:52:40;;;;;;;0.70;0.20;;;29.50;99.90;;;;;;5017576;28;20425;-76
2022/05/18 12:55:23;;;;;;;0.70;0.20;;;29.60;99.90;;;;;;5007113;28;20478;-73
2022/05/18 12:57:53;;;;;;;0.70;0.10;;;29.50;99.90;;;;;;5018052;28;20531;-77
2022/05/18 13:00:42;;;;;;;0.70;0.20;;;29.40;99.90;;;;;;5014281;28;20461;-78
2022/05/18 13:03:25;;;;;;;0.70;0.20;;;29.40;99.90;;;;;;5018564;28;21038;-79
2022/05/18 13:05:55;;;;;;;0.70;0.13;;;29.40;99.90;;;;;;5025588;28;20459;-79
2022/05/18 13:09:03;;;;;;;0.70;0.10;;;29.30;99.90;;;;;;5022266;28;20496;-79
2022/05/18 13:11:47;;;;;;;0.70;0.20;;;29.30;99.90;;;;;;5024460;28;20834;-78
2022/05/18 13:14:44;;;;;;;0.70;0.20;;;29.10;99.90;;;;;;5029180;28;20458;-77
2022/05/18 13:17:20;;;;;;;0.70;0.20;;;28.90;99.90;;;;;;5028154;28;20555;-76
2022/05/18 13:20:05;;;;;;;0.70;0.20;;;29.00;99.90;;;;;;5027874;28;20472;-79
2022/05/18 13:22:47;;;;;;;0.80;0.40;;;29.10;99.90;;;;;;5028256;28;20206;-78
2022/05/18 13:25:17;;;;;;;0.70;0.10;;;29.20;99.90;;;;;;5028314;28;20474;-78
2022/05/18 13:27:52;;;;;;;0.70;0.10;;;29.30;99.90;;;;;;5006096;28;20472;-79
2022/05/18 13:30:30;;;;;;;0.70;0.20;;;29.20;99.90;;;;;;4998122;28;20455;-79
2022/05/18 13:33:22;;;;;;;0.70;0.10;;;29.20;99.90;;;;;;4998022;28;20444;-79
2022/05/18 13:35:50;;;;;;;0.70;0.20;;;29.10;99.90;;;;;;4997407;28;20515;-79
2022/05/18 13:38:24;;;;;;;0.70;0.20;;;29.10;99.90;;;;;;5000968;28;20471;-78